sensor_id;sensor_type;location;lat;lon;timestamp;P1;durP1;ratioP1;P2;durP2;ratioP2
54935;SDS011;40838;50.676;7.838;2023-01-30T00:01:39;47.30;;;19.75;;
54935;SDS011;40838;50.676;7.838;2023-01-30T00:04:10;52.05;;;20.35;;
54935;SDS011;40838;50.676;7.838;2023-01-30T00:06:38;48.25;;;19.90;;
54935;SDS011;40838;50.676;7.838;2023-01-30T00:09:19;47.67;;;19.00;;
54935;SDS011;40838;50.676;7.838;2023-01-30T00:11:48;49.55;;;19.30;;
54935;SDS011;40838;50.676;7.838;2023-01-30T00:14:15;50.05;;;20.77;;
54935;SDS011;40838;50.676;7.838;2023-01-30T00:16:42;52.45;;;22.15;;
54935;SDS011;40838;50.676;7.838;2023-01-30T00:19:10;44.42;;;19.98;;
54935;SDS011;40838;50.676;7.838;2023-01-30T00:21:37;49.80;;;19.80;;
54935;SDS011;40838;50.676;7.838;2023-01-30T00:24:06;58.45;;;23.05;;
54935;SDS011;40838;50.676;7.838;2023-01-30T00:26:33;51.63;;;21.48;;
54935;SDS011;40838;50.676;7.838;2023-01-30T00:29:00;53.25;;;22.08;;
54935;SDS011;40838;50.676;7.838;2023-01-30T00:31:29;52.55;;;21.63;;
54935;SDS011;40838;50.676;7.838;2023-01-30T00:33:56;51.22;;;21.75;;
54935;SDS011;40838;50.676;7.838;2023-01-30T00:36:34;47.75;;;19.83;;
54935;SDS011;40838;50.676;7.838;2023-01-30T00:39:01;54.72;;;22.08;;
54935;SDS011;40838;50.676;7.838;2023-01-30T00:41:28;52.67;;;20.90;;
54935;SDS011;40838;50.676;7.838;2023-01-30T00:44:15;57.50;;;22.45;;
54935;SDS011;40838;50.676;7.838;2023-01-30T00:46:59;50.03;;;20.88;;
54935;SDS011;40838;50.676;7.838;2023-01-30T00:49:35;49.83;;;19.03;;
54935;SDS011;40838;50.676;7.838;2023-01-30T00:52:04;53.67;;;21.30;;
54935;SDS011;40838;50.676;7.838;2023-01-30T00:54:33;53.15;;;20.98;;
54935;SDS011;40838;50.676;7.838;2023-01-30T00:57:00;51.53;;;21.25;;
54935;SDS011;40838;50.676;7.838;2023-01-30T00:59:29;52.75;;;21.63;;
54935;SDS011;40838;50.676;7.838;2023-01-30T01:01:56;55.30;;;21.90;;
54935;SDS011;40838;50.676;7.838;2023-01-30T01:04:25;51.35;;;20.17;;
54935;SDS011;40838;50.676;7.838;2023-01-30T01:07:08;52.47;;;21.33;;
54935;SDS011;40838;50.676;7.838;2023-01-30T01:09:35;49.95;;;22.30;;
54935;SDS011;40838;50.676;7.838;2023-01-30T01:12:03;50.83;;;20.20;;
54935;SDS011;40838;50.676;7.838;2023-01-30T01:14:33;52.03;;;21.67;;
54935;SDS011;40838;50.676;7.838;2023-01-30T01:17:00;44.92;;;18.40;;
54935;SDS011;40838;50.676;7.838;2023-01-30T01:19:27;44.97;;;20.08;;
54935;SDS011;40838;50.676;7.838;2023-01-30T01:21:54;45.75;;;21.25;;
54935;SDS011;40838;50.676;7.838;2023-01-30T01:24:22;49.17;;;22.63;;
54935;SDS011;40838;50.676;7.838;2023-01-30T01:26:49;44.15;;;18.77;;
54935;SDS011;40838;50.676;7.838;2023-01-30T01:29:16;50.08;;;19.48;;
54935;SDS011;40838;50.676;7.838;2023-01-30T01:31:45;50.35;;;20.40;;
54935;SDS011;40838;50.676;7.838;2023-01-30T01:34:14;49.38;;;19.75;;
54935;SDS011;40838;50.676;7.838;2023-01-30T01:36:42;43.72;;;19.17;;
54935;SDS011;40838;50.676;7.838;2023-01-30T01:39:09;49.75;;;21.25;;
54935;SDS011;40838;50.676;7.838;2023-01-30T01:41:39;44.85;;;18.23;;
54935;SDS011;40838;50.676;7.838;2023-01-30T01:44:05;50.45;;;19.92;;
54935;SDS011;40838;50.676;7.838;2023-01-30T01:46:34;47.78;;;20.45;;
54935;SDS011;40838;50.676;7.838;2023-01-30T01:49:04;56.42;;;21.92;;
54935;SDS011;40838;50.676;7.838;2023-01-30T01:51:38;61.90;;;23.27;;
54935;SDS011;40838;50.676;7.838;2023-01-30T01:54:08;48.85;;;22.65;;
54935;SDS011;40838;50.676;7.838;2023-01-30T01:56:41;57.58;;;23.23;;
54935;SDS011;40838;50.676;7.838;2023-01-30T01:59:13;52.78;;;21.42;;
54935;SDS011;40838;50.676;7.838;2023-01-30T02:01:46;46.75;;;20.55;;
54935;SDS011;40838;50.676;7.838;2023-01-30T02:04:15;48.85;;;19.90;;
54935;SDS011;40838;50.676;7.838;2023-01-30T02:07:03;48.90;;;20.55;;
54935;SDS011;40838;50.676;7.838;2023-01-30T02:09:31;45.20;;;19.95;;
54935;SDS011;40838;50.676;7.838;2023-01-30T02:12:08;47.03;;;20.55;;
54935;SDS011;40838;50.676;7.838;2023-01-30T02:14:40;46.67;;;19.20;;
54935;SDS011;40838;50.676;7.838;2023-01-30T02:17:09;54.72;;;21.25;;
54935;SDS011;40838;50.676;7.838;2023-01-30T02:19:38;43.90;;;17.30;;
54935;SDS011;40838;50.676;7.838;2023-01-30T02:22:21;46.72;;;20.85;;
54935;SDS011;40838;50.676;7.838;2023-01-30T02:28:33;50.20;;;21.25;;
54935;SDS011;40838;50.676;7.838;2023-01-30T02:31:17;46.50;;;19.10;;
54935;SDS011;40838;50.676;7.838;2023-01-30T02:33:55;47.25;;;19.05;;
54935;SDS011;40838;50.676;7.838;2023-01-30T02:36:40;46.80;;;19.02;;
54935;SDS011;40838;50.676;7.838;2023-01-30T02:39:24;45.95;;;19.45;;
54935;SDS011;40838;50.676;7.838;2023-01-30T02:42:03;41.30;;;18.15;;
54935;SDS011;40838;50.676;7.838;2023-01-30T02:44:41;47.25;;;19.08;;
54935;SDS011;40838;50.676;7.838;2023-01-30T02:47:20;44.03;;;18.98;;
54935;SDS011;40838;50.676;7.838;2023-01-30T02:49:56;46.53;;;17.85;;
54935;SDS011;40838;50.676;7.838;2023-01-30T02:54:55;50.90;;;18.75;;
54935;SDS011;40838;50.676;7.838;2023-01-30T02:57:22;48.70;;;19.05;;
54935;SDS011;40838;50.676;7.838;2023-01-30T02:59:56;46.83;;;19.60;;
54935;SDS011;40838;50.676;7.838;2023-01-30T03:02:42;45.58;;;17.92;;
54935;SDS011;40838;50.676;7.838;2023-01-30T03:05:39;44.17;;;18.60;;
54935;SDS011;40838;50.676;7.838;2023-01-30T03:08:19;45.53;;;18.13;;
54935;SDS011;40838;50.676;7.838;2023-01-30T03:10:57;48.22;;;17.75;;
54935;SDS011;40838;50.676;7.838;2023-01-30T03:13:28;42.80;;;17.60;;
54935;SDS011;40838;50.676;7.838;2023-01-30T03:16:06;40.97;;;18.17;;
54935;SDS011;40838;50.676;7.838;2023-01-30T03:18:41;41.70;;;17.63;;
54935;SDS011;40838;50.676;7.838;2023-01-30T03:21:14;37.67;;;15.95;;
54935;SDS011;40838;50.676;7.838;2023-01-30T03:23:43;36.90;;;15.27;;
54935;SDS011;40838;50.676;7.838;2023-01-30T03:26:13;38.00;;;16.00;;
54935;SDS011;40838;50.676;7.838;2023-01-30T03:28:44;38.88;;;16.45;;
54935;SDS011;40838;50.676;7.838;2023-01-30T03:31:14;35.83;;;16.65;;
54935;SDS011;40838;50.676;7.838;2023-01-30T03:33:43;44.67;;;17.02;;
54935;SDS011;40838;50.676;7.838;2023-01-30T03:36:10;39.70;;;17.80;;
54935;SDS011;40838;50.676;7.838;2023-01-30T03:38:45;38.65;;;16.27;;
54935;SDS011;40838;50.676;7.838;2023-01-30T03:41:12;43.10;;;17.10;;
54935;SDS011;40838;50.676;7.838;2023-01-30T03:43:41;45.13;;;17.52;;
54935;SDS011;40838;50.676;7.838;2023-01-30T03:46:08;40.95;;;18.40;;
54935;SDS011;40838;50.676;7.838;2023-01-30T03:48:35;51.22;;;18.88;;
54935;SDS011;40838;50.676;7.838;2023-01-30T03:51:03;48.35;;;19.90;;
54935;SDS011;40838;50.676;7.838;2023-01-30T03:53:30;47.97;;;19.58;;
54935;SDS011;40838;50.676;7.838;2023-01-30T03:55:57;47.35;;;19.65;;
54935;SDS011;40838;50.676;7.838;2023-01-30T03:58:29;48.15;;;19.95;;
54935;SDS011;40838;50.676;7.838;2023-01-30T04:00:58;48.95;;;19.17;;
54935;SDS011;40838;50.676;7.838;2023-01-30T04:03:25;47.88;;;18.33;;
54935;SDS011;40838;50.676;7.838;2023-01-30T04:05:56;43.42;;;20.10;;
54935;SDS011;40838;50.676;7.838;2023-01-30T04:08:25;45.47;;;18.92;;
54935;SDS011;40838;50.676;7.838;2023-01-30T04:10:54;43.22;;;17.60;;
54935;SDS011;40838;50.676;7.838;2023-01-30T04:13:22;48.92;;;19.73;;
54935;SDS011;40838;50.676;7.838;2023-01-30T04:15:49;52.00;;;18.30;;
54935;SDS011;40838;50.676;7.838;2023-01-30T04:18:38;49.13;;;20.15;;
54935;SDS011;40838;50.676;7.838;2023-01-30T04:21:11;45.03;;;18.80;;
54935;SDS011;40838;50.676;7.838;2023-01-30T04:23:40;41.08;;;18.17;;
54935;SDS011;40838;50.676;7.838;2023-01-30T04:26:07;42.95;;;17.95;;
54935;SDS011;40838;50.676;7.838;2023-01-30T04:31:14;41.92;;;17.65;;
54935;SDS011;40838;50.676;7.838;2023-01-30T04:34:02;38.92;;;17.65;;
54935;SDS011;40838;50.676;7.838;2023-01-30T04:36:29;41.83;;;17.52;;
54935;SDS011;40838;50.676;7.838;2023-01-30T04:38:58;41.05;;;16.48;;
54935;SDS011;40838;50.676;7.838;2023-01-30T04:41:27;36.13;;;15.38;;
54935;SDS011;40838;50.676;7.838;2023-01-30T04:44:04;38.28;;;16.48;;
54935;SDS011;40838;50.676;7.838;2023-01-30T04:46:37;37.20;;;16.27;;
54935;SDS011;40838;50.676;7.838;2023-01-30T04:49:04;41.28;;;16.95;;
54935;SDS011;40838;50.676;7.838;2023-01-30T04:51:33;37.22;;;16.73;;
54935;SDS011;40838;50.676;7.838;2023-01-30T04:54:02;38.30;;;16.23;;
54935;SDS011;40838;50.676;7.838;2023-01-30T04:56:30;41.80;;;17.60;;
54935;SDS011;40838;50.676;7.838;2023-01-30T04:58:56;44.40;;;18.02;;
54935;SDS011;40838;50.676;7.838;2023-01-30T05:01:29;37.97;;;16.50;;
54935;SDS011;40838;50.676;7.838;2023-01-30T05:03:58;35.88;;;16.52;;
54935;SDS011;40838;50.676;7.838;2023-01-30T05:06:25;35.88;;;16.13;;
54935;SDS011;40838;50.676;7.838;2023-01-30T05:08:53;37.60;;;18.35;;
54935;SDS011;40838;50.676;7.838;2023-01-30T05:11:26;39.53;;;17.42;;
54935;SDS011;40838;50.676;7.838;2023-01-30T05:13:56;43.75;;;17.65;;
54935;SDS011;40838;50.676;7.838;2023-01-30T05:16:23;40.47;;;18.13;;
54935;SDS011;40838;50.676;7.838;2023-01-30T05:18:51;38.13;;;18.15;;
54935;SDS011;40838;50.676;7.838;2023-01-30T05:21:18;42.28;;;18.77;;
54935;SDS011;40838;50.676;7.838;2023-01-30T05:23:47;39.10;;;18.98;;
54935;SDS011;40838;50.676;7.838;2023-01-30T05:26:14;40.83;;;17.15;;
54935;SDS011;40838;50.676;7.838;2023-01-30T05:28:42;38.40;;;17.73;;
54935;SDS011;40838;50.676;7.838;2023-01-30T05:31:12;40.15;;;17.35;;
54935;SDS011;40838;50.676;7.838;2023-01-30T05:33:39;39.88;;;16.30;;
54935;SDS011;40838;50.676;7.838;2023-01-30T05:36:07;41.08;;;18.10;;
54935;SDS011;40838;50.676;7.838;2023-01-30T05:38:40;36.15;;;16.52;;
54935;SDS011;40838;50.676;7.838;2023-01-30T05:41:08;44.17;;;17.92;;
54935;SDS011;40838;50.676;7.838;2023-01-30T05:43:37;43.17;;;18.00;;
54935;SDS011;40838;50.676;7.838;2023-01-30T05:46:06;39.10;;;17.70;;
54935;SDS011;40838;50.676;7.838;2023-01-30T05:48:35;37.22;;;16.80;;
54935;SDS011;40838;50.676;7.838;2023-01-30T05:51:13;37.53;;;16.65;;
54935;SDS011;40838;50.676;7.838;2023-01-30T05:53:44;39.80;;;15.40;;
54935;SDS011;40838;50.676;7.838;2023-01-30T05:56:12;35.03;;;16.85;;
54935;SDS011;40838;50.676;7.838;2023-01-30T05:58:39;34.25;;;15.13;;
54935;SDS011;40838;50.676;7.838;2023-01-30T06:01:09;35.58;;;16.05;;
54935;SDS011;40838;50.676;7.838;2023-01-30T06:03:38;41.67;;;16.80;;
54935;SDS011;40838;50.676;7.838;2023-01-30T06:06:05;40.20;;;17.25;;
54935;SDS011;40838;50.676;7.838;2023-01-30T06:08:32;40.10;;;18.63;;
54935;SDS011;40838;50.676;7.838;2023-01-30T06:10:59;41.00;;;17.80;;
54935;SDS011;40838;50.676;7.838;2023-01-30T06:13:26;48.60;;;20.60;;
54935;SDS011;40838;50.676;7.838;2023-01-30T06:15:53;46.92;;;21.00;;
54935;SDS011;40838;50.676;7.838;2023-01-30T06:18:23;49.30;;;21.05;;
54935;SDS011;40838;50.676;7.838;2023-01-30T06:20:50;53.83;;;21.05;;
54935;SDS011;40838;50.676;7.838;2023-01-30T06:23:18;52.00;;;20.40;;
54935;SDS011;40838;50.676;7.838;2023-01-30T06:25:47;53.25;;;21.75;;
54935;SDS011;40838;50.676;7.838;2023-01-30T06:28:21;57.70;;;21.85;;
54935;SDS011;40838;50.676;7.838;2023-01-30T06:30:51;52.05;;;18.90;;
54935;SDS011;40838;50.676;7.838;2023-01-30T06:33:34;45.95;;;18.77;;
54935;SDS011;40838;50.676;7.838;2023-01-30T06:36:02;42.13;;;17.35;;
54935;SDS011;40838;50.676;7.838;2023-01-30T06:38:29;47.15;;;18.58;;
54935;SDS011;40838;50.676;7.838;2023-01-30T06:41:04;43.45;;;18.20;;
54935;SDS011;40838;50.676;7.838;2023-01-30T06:43:31;56.15;;;18.35;;
54935;SDS011;40838;50.676;7.838;2023-01-30T06:45:58;45.90;;;17.13;;
54935;SDS011;40838;50.676;7.838;2023-01-30T06:48:25;44.10;;;17.73;;
54935;SDS011;40838;50.676;7.838;2023-01-30T06:50:55;45.42;;;17.58;;
54935;SDS011;40838;50.676;7.838;2023-01-30T06:53:22;38.88;;;16.23;;
54935;SDS011;40838;50.676;7.838;2023-01-30T06:55:54;39.00;;;16.92;;
54935;SDS011;40838;50.676;7.838;2023-01-30T06:58:21;40.08;;;17.40;;
54935;SDS011;40838;50.676;7.838;2023-01-30T07:01:02;38.80;;;15.77;;
54935;SDS011;40838;50.676;7.838;2023-01-30T07:03:29;31.77;;;14.75;;
54935;SDS011;40838;50.676;7.838;2023-01-30T07:05:57;33.13;;;15.75;;
54935;SDS011;40838;50.676;7.838;2023-01-30T07:08:25;35.65;;;15.48;;
54935;SDS011;40838;50.676;7.838;2023-01-30T07:10:53;36.22;;;16.10;;
54935;SDS011;40838;50.676;7.838;2023-01-30T07:13:19;39.65;;;15.65;;
54935;SDS011;40838;50.676;7.838;2023-01-30T07:15:46;41.15;;;16.77;;
54935;SDS011;40838;50.676;7.838;2023-01-30T07:18:13;38.03;;;17.05;;
54935;SDS011;40838;50.676;7.838;2023-01-30T07:20:40;43.88;;;17.60;;
54935;SDS011;40838;50.676;7.838;2023-01-30T07:23:08;43.03;;;18.48;;
54935;SDS011;40838;50.676;7.838;2023-01-30T07:25:35;41.67;;;16.63;;
54935;SDS011;40838;50.676;7.838;2023-01-30T07:28:02;34.58;;;14.73;;
54935;SDS011;40838;50.676;7.838;2023-01-30T07:30:30;33.95;;;14.50;;
54935;SDS011;40838;50.676;7.838;2023-01-30T07:32:58;39.40;;;17.52;;
54935;SDS011;40838;50.676;7.838;2023-01-30T07:35:27;41.15;;;16.55;;
54935;SDS011;40838;50.676;7.838;2023-01-30T07:38:01;36.80;;;14.77;;
54935;SDS011;40838;50.676;7.838;2023-01-30T07:40:35;40.95;;;16.80;;
54935;SDS011;40838;50.676;7.838;2023-01-30T07:43:03;38.75;;;15.77;;
54935;SDS011;40838;50.676;7.838;2023-01-30T07:45:33;39.85;;;15.27;;
54935;SDS011;40838;50.676;7.838;2023-01-30T07:48:03;35.20;;;15.50;;
54935;SDS011;40838;50.676;7.838;2023-01-30T07:50:30;36.80;;;15.65;;
54935;SDS011;40838;50.676;7.838;2023-01-30T07:52:57;30.35;;;13.70;;
54935;SDS011;40838;50.676;7.838;2023-01-30T07:55:25;34.38;;;14.27;;
54935;SDS011;40838;50.676;7.838;2023-01-30T08:00:37;27.75;;;12.95;;
54935;SDS011;40838;50.676;7.838;2023-01-30T08:03:04;28.98;;;13.43;;
54935;SDS011;40838;50.676;7.838;2023-01-30T08:05:31;25.95;;;11.98;;
54935;SDS011;40838;50.676;7.838;2023-01-30T08:10:36;31.23;;;13.57;;
54935;SDS011;40838;50.676;7.838;2023-01-30T08:13:03;30.55;;;12.65;;
54935;SDS011;40838;50.676;7.838;2023-01-30T08:15:31;27.98;;;12.15;;
54935;SDS011;40838;50.676;7.838;2023-01-30T08:17:58;21.20;;;9.52;;
54935;SDS011;40838;50.676;7.838;2023-01-30T08:20:26;19.88;;;9.75;;
54935;SDS011;40838;50.676;7.838;2023-01-30T08:22:53;19.15;;;8.77;;
54935;SDS011;40838;50.676;7.838;2023-01-30T08:25:21;16.77;;;7.57;;
54935;SDS011;40838;50.676;7.838;2023-01-30T08:27:49;16.45;;;8.65;;
54935;SDS011;40838;50.676;7.838;2023-01-30T08:30:16;13.20;;;8.13;;
54935;SDS011;40838;50.676;7.838;2023-01-30T08:32:48;14.63;;;7.78;;
54935;SDS011;40838;50.676;7.838;2023-01-30T08:35:15;10.52;;;5.68;;
54935;SDS011;40838;50.676;7.838;2023-01-30T08:37:45;7.25;;;5.18;;
54935;SDS011;40838;50.676;7.838;2023-01-30T08:40:14;11.93;;;6.63;;
54935;SDS011;40838;50.676;7.838;2023-01-30T08:42:44;11.23;;;6.57;;
54935;SDS011;40838;50.676;7.838;2023-01-30T08:45:26;11.68;;;7.18;;
54935;SDS011;40838;50.676;7.838;2023-01-30T08:47:57;7.82;;;5.50;;
54935;SDS011;40838;50.676;7.838;2023-01-30T08:50:31;6.72;;;4.35;;
54935;SDS011;40838;50.676;7.838;2023-01-30T08:53:04;7.93;;;5.15;;
54935;SDS011;40838;50.676;7.838;2023-01-30T08:55:33;67.28;;;10.15;;
54935;SDS011;40838;50.676;7.838;2023-01-30T08:58:00;6.90;;;4.90;;
54935;SDS011;40838;50.676;7.838;2023-01-30T09:00:27;5.82;;;4.38;;
54935;SDS011;40838;50.676;7.838;2023-01-30T09:02:54;8.32;;;4.30;;
54935;SDS011;40838;50.676;7.838;2023-01-30T09:05:24;7.50;;;4.95;;
54935;SDS011;40838;50.676;7.838;2023-01-30T09:07:50;7.00;;;4.22;;
54935;SDS011;40838;50.676;7.838;2023-01-30T09:10:17;6.70;;;4.05;;
54935;SDS011;40838;50.676;7.838;2023-01-30T09:12:46;5.72;;;3.97;;
54935;SDS011;40838;50.676;7.838;2023-01-30T09:15:22;5.55;;;3.60;;
54935;SDS011;40838;50.676;7.838;2023-01-30T09:17:49;5.40;;;3.10;;
54935;SDS011;40838;50.676;7.838;2023-01-30T09:20:18;4.07;;;3.10;;
54935;SDS011;40838;50.676;7.838;2023-01-30T09:22:48;6.10;;;4.18;;
54935;SDS011;40838;50.676;7.838;2023-01-30T09:25:15;5.90;;;3.78;;
54935;SDS011;40838;50.676;7.838;2023-01-30T09:27:42;5.80;;;4.03;;
54935;SDS011;40838;50.676;7.838;2023-01-30T09:30:10;7.65;;;4.20;;
54935;SDS011;40838;50.676;7.838;2023-01-30T09:32:46;10.88;;;5.20;;
54935;SDS011;40838;50.676;7.838;2023-01-30T09:35:13;11.93;;;5.50;;
54935;SDS011;40838;50.676;7.838;2023-01-30T09:37:45;12.18;;;5.30;;
54935;SDS011;40838;50.676;7.838;2023-01-30T09:40:17;8.63;;;5.53;;
54935;SDS011;40838;50.676;7.838;2023-01-30T09:42:55;8.65;;;4.97;;
54935;SDS011;40838;50.676;7.838;2023-01-30T09:45:44;10.35;;;6.05;;
54935;SDS011;40838;50.676;7.838;2023-01-30T09:48:21;16.30;;;6.90;;
54935;SDS011;40838;50.676;7.838;2023-01-30T09:51:05;15.43;;;7.15;;
54935;SDS011;40838;50.676;7.838;2023-01-30T09:53:58;16.30;;;8.15;;
54935;SDS011;40838;50.676;7.838;2023-01-30T09:56:40;16.40;;;6.93;;
54935;SDS011;40838;50.676;7.838;2023-01-30T09:59:11;15.90;;;7.00;;
54935;SDS011;40838;50.676;7.838;2023-01-30T10:01:50;16.17;;;7.45;;
54935;SDS011;40838;50.676;7.838;2023-01-30T10:04:26;12.57;;;6.50;;
54935;SDS011;40838;50.676;7.838;2023-01-30T10:06:58;20.42;;;7.82;;
54935;SDS011;40838;50.676;7.838;2023-01-30T10:09:38;15.52;;;7.07;;
54935;SDS011;40838;50.676;7.838;2023-01-30T10:12:30;22.63;;;8.20;;
54935;SDS011;40838;50.676;7.838;2023-01-30T10:18:12;11.38;;;7.07;;
54935;SDS011;40838;50.676;7.838;2023-01-30T10:20:51;36.47;;;7.70;;
54935;SDS011;40838;50.676;7.838;2023-01-30T10:23:33;15.40;;;5.03;;
54935;SDS011;40838;50.676;7.838;2023-01-30T10:26:15;9.30;;;4.97;;
54935;SDS011;40838;50.676;7.838;2023-01-30T10:28:50;17.73;;;4.88;;
54935;SDS011;40838;50.676;7.838;2023-01-30T10:31:23;14.13;;;4.07;;
54935;SDS011;40838;50.676;7.838;2023-01-30T10:34:00;14.60;;;5.07;;
54935;SDS011;40838;50.676;7.838;2023-01-30T10:36:31;11.55;;;4.25;;
54935;SDS011;40838;50.676;7.838;2023-01-30T10:39:08;22.15;;;5.25;;
54935;SDS011;40838;50.676;7.838;2023-01-30T10:41:44;12.45;;;3.47;;
54935;SDS011;40838;50.676;7.838;2023-01-30T10:44:22;19.40;;;3.80;;
54935;SDS011;40838;50.676;7.838;2023-01-30T10:46:56;16.73;;;3.67;;
54935;SDS011;40838;50.676;7.838;2023-01-30T10:49:35;17.33;;;3.47;;
54935;SDS011;40838;50.676;7.838;2023-01-30T10:52:11;15.02;;;3.83;;
54935;SDS011;40838;50.676;7.838;2023-01-30T10:54:51;10.73;;;2.88;;
54935;SDS011;40838;50.676;7.838;2023-01-30T10:57:37;10.63;;;2.90;;
54935;SDS011;40838;50.676;7.838;2023-01-30T11:00:16;34.67;;;4.72;;
54935;SDS011;40838;50.676;7.838;2023-01-30T11:02:57;13.10;;;2.30;;
54935;SDS011;40838;50.676;7.838;2023-01-30T11:05:38;13.13;;;2.55;;
54935;SDS011;40838;50.676;7.838;2023-01-30T11:08:17;15.80;;;3.17;;
54935;SDS011;40838;50.676;7.838;2023-01-30T11:10:47;17.00;;;2.38;;
54935;SDS011;40838;50.676;7.838;2023-01-30T11:13:16;13.93;;;3.00;;
54935;SDS011;40838;50.676;7.838;2023-01-30T11:15:46;10.85;;;2.40;;
54935;SDS011;40838;50.676;7.838;2023-01-30T11:18:16;13.50;;;2.45;;
54935;SDS011;40838;50.676;7.838;2023-01-30T11:20:50;12.90;;;2.70;;
54935;SDS011;40838;50.676;7.838;2023-01-30T11:25:59;12.30;;;2.20;;
54935;SDS011;40838;50.676;7.838;2023-01-30T11:28:27;10.20;;;2.40;;
54935;SDS011;40838;50.676;7.838;2023-01-30T11:31:02;9.77;;;3.28;;
54935;SDS011;40838;50.676;7.838;2023-01-30T11:33:32;19.35;;;4.20;;
54935;SDS011;40838;50.676;7.838;2023-01-30T11:36:01;10.98;;;2.83;;
54935;SDS011;40838;50.676;7.838;2023-01-30T11:38:30;12.45;;;3.33;;
54935;SDS011;40838;50.676;7.838;2023-01-30T11:41:03;12.80;;;4.05;;
54935;SDS011;40838;50.676;7.838;2023-01-30T11:43:32;18.05;;;2.92;;
54935;SDS011;40838;50.676;7.838;2023-01-30T11:46:03;12.05;;;3.03;;
54935;SDS011;40838;50.676;7.838;2023-01-30T11:48:31;12.88;;;2.67;;
54935;SDS011;40838;50.676;7.838;2023-01-30T11:51:02;12.88;;;3.38;;
54935;SDS011;40838;50.676;7.838;2023-01-30T11:53:33;11.95;;;2.75;;
54935;SDS011;40838;50.676;7.838;2023-01-30T11:56:04;18.73;;;3.28;;
54935;SDS011;40838;50.676;7.838;2023-01-30T11:58:36;10.95;;;2.70;;
54935;SDS011;40838;50.676;7.838;2023-01-30T12:01:08;18.08;;;4.10;;
54935;SDS011;40838;50.676;7.838;2023-01-30T12:03:38;10.80;;;2.80;;
54935;SDS011;40838;50.676;7.838;2023-01-30T12:06:20;19.45;;;4.45;;
54935;SDS011;40838;50.676;7.838;2023-01-30T12:08:57;18.58;;;3.38;;
54935;SDS011;40838;50.676;7.838;2023-01-30T12:11:29;15.43;;;3.15;;
54935;SDS011;40838;50.676;7.838;2023-01-30T12:14:06;18.13;;;3.75;;
54935;SDS011;40838;50.676;7.838;2023-01-30T12:16:45;13.38;;;2.78;;
54935;SDS011;40838;50.676;7.838;2023-01-30T12:19:24;15.18;;;2.80;;
54935;SDS011;40838;50.676;7.838;2023-01-30T12:22:01;13.57;;;2.97;;
54935;SDS011;40838;50.676;7.838;2023-01-30T12:27:05;13.43;;;3.30;;
54935;SDS011;40838;50.676;7.838;2023-01-30T12:32:18;18.63;;;3.60;;
54935;SDS011;40838;50.676;7.838;2023-01-30T12:34:48;10.43;;;2.95;;
54935;SDS011;40838;50.676;7.838;2023-01-30T12:37:21;19.13;;;4.55;;
54935;SDS011;40838;50.676;7.838;2023-01-30T12:40:04;13.52;;;2.78;;
54935;SDS011;40838;50.676;7.838;2023-01-30T12:45:54;16.02;;;2.50;;
54935;SDS011;40838;50.676;7.838;2023-01-30T12:48:44;20.58;;;4.45;;
54935;SDS011;40838;50.676;7.838;2023-01-30T12:51:25;12.35;;;2.80;;
54935;SDS011;40838;50.676;7.838;2023-01-30T12:54:07;11.77;;;2.78;;
54935;SDS011;40838;50.676;7.838;2023-01-30T12:56:52;19.15;;;3.53;;
54935;SDS011;40838;50.676;7.838;2023-01-30T12:59:27;22.00;;;3.72;;
54935;SDS011;40838;50.676;7.838;2023-01-30T13:02:15;22.55;;;4.18;;
54935;SDS011;40838;50.676;7.838;2023-01-30T13:05:10;8.77;;;2.55;;
54935;SDS011;40838;50.676;7.838;2023-01-30T13:07:59;13.65;;;3.10;;
54935;SDS011;40838;50.676;7.838;2023-01-30T13:10:38;20.88;;;4.22;;
54935;SDS011;40838;50.676;7.838;2023-01-30T13:13:11;10.65;;;2.70;;
54935;SDS011;40838;50.676;7.838;2023-01-30T13:15:47;19.10;;;3.83;;
54935;SDS011;40838;50.676;7.838;2023-01-30T13:18:24;12.85;;;3.17;;
54935;SDS011;40838;50.676;7.838;2023-01-30T13:21:03;15.27;;;2.90;;
54935;SDS011;40838;50.676;7.838;2023-01-30T13:23:42;17.58;;;3.90;;
54935;SDS011;40838;50.676;7.838;2023-01-30T13:26:21;17.75;;;3.70;;
54935;SDS011;40838;50.676;7.838;2023-01-30T13:28:55;16.45;;;3.40;;
54935;SDS011;40838;50.676;7.838;2023-01-30T13:31:29;13.68;;;3.47;;
54935;SDS011;40838;50.676;7.838;2023-01-30T13:34:03;19.65;;;4.05;;
54935;SDS011;40838;50.676;7.838;2023-01-30T13:36:35;20.13;;;6.43;;
54935;SDS011;40838;50.676;7.838;2023-01-30T13:39:09;22.52;;;4.80;;
54935;SDS011;40838;50.676;7.838;2023-01-30T13:41:41;24.70;;;3.15;;
54935;SDS011;40838;50.676;7.838;2023-01-30T13:44:14;18.48;;;3.80;;
54935;SDS011;40838;50.676;7.838;2023-01-30T13:46:46;15.70;;;3.15;;
54935;SDS011;40838;50.676;7.838;2023-01-30T13:49:16;14.80;;;3.42;;
54935;SDS011;40838;50.676;7.838;2023-01-30T13:51:51;10.85;;;2.88;;
54935;SDS011;40838;50.676;7.838;2023-01-30T13:54:31;18.05;;;4.75;;
54935;SDS011;40838;50.676;7.838;2023-01-30T13:57:14;14.40;;;3.97;;
54935;SDS011;40838;50.676;7.838;2023-01-30T13:59:58;15.98;;;4.68;;
54935;SDS011;40838;50.676;7.838;2023-01-30T14:05:59;16.63;;;3.83;;
54935;SDS011;40838;50.676;7.838;2023-01-30T14:08:32;12.95;;;2.88;;
54935;SDS011;40838;50.676;7.838;2023-01-30T14:11:04;10.88;;;2.95;;
54935;SDS011;40838;50.676;7.838;2023-01-30T14:13:56;23.08;;;3.55;;
54935;SDS011;40838;50.676;7.838;2023-01-30T14:16:40;22.55;;;3.58;;
54935;SDS011;40838;50.676;7.838;2023-01-30T14:22:23;19.52;;;3.33;;
54935;SDS011;40838;50.676;7.838;2023-01-30T14:37:25;14.55;;;2.30;;
54935;SDS011;40838;50.676;7.838;2023-01-30T14:39:54;24.40;;;2.97;;
54935;SDS011;40838;50.676;7.838;2023-01-30T14:42:24;13.15;;;2.83;;
54935;SDS011;40838;50.676;7.838;2023-01-30T14:44:56;14.05;;;4.20;;
54935;SDS011;40838;50.676;7.838;2023-01-30T14:47:31;13.43;;;2.35;;
54935;SDS011;40838;50.676;7.838;2023-01-30T14:49:58;18.02;;;2.90;;
54935;SDS011;40838;50.676;7.838;2023-01-30T14:52:30;14.90;;;2.38;;
54935;SDS011;40838;50.676;7.838;2023-01-30T14:55:03;15.38;;;2.45;;
54935;SDS011;40838;50.676;7.838;2023-01-30T14:57:33;20.42;;;3.05;;
54935;SDS011;40838;50.676;7.838;2023-01-30T15:00:03;15.07;;;3.78;;
54935;SDS011;40838;50.676;7.838;2023-01-30T15:05:10;20.23;;;3.28;;
54935;SDS011;40838;50.676;7.838;2023-01-30T15:07:43;15.55;;;3.03;;
54935;SDS011;40838;50.676;7.838;2023-01-30T15:10:18;16.88;;;3.10;;
54935;SDS011;40838;50.676;7.838;2023-01-30T15:15:57;14.25;;;3.05;;
54935;SDS011;40838;50.676;7.838;2023-01-30T15:18:39;17.95;;;3.17;;
54935;SDS011;40838;50.676;7.838;2023-01-30T15:24:24;17.73;;;2.78;;
54935;SDS011;40838;50.676;7.838;2023-01-30T15:27:12;21.63;;;3.60;;
54935;SDS011;40838;50.676;7.838;2023-01-30T15:29:57;15.57;;;2.85;;
54935;SDS011;40838;50.676;7.838;2023-01-30T15:32:32;22.63;;;3.92;;
54935;SDS011;40838;50.676;7.838;2023-01-30T15:35:15;17.73;;;3.08;;
54935;SDS011;40838;50.676;7.838;2023-01-30T15:37:49;21.20;;;2.30;;
54935;SDS011;40838;50.676;7.838;2023-01-30T15:40:18;19.40;;;4.13;;
54935;SDS011;40838;50.676;7.838;2023-01-30T15:42:49;20.92;;;3.20;;
54935;SDS011;40838;50.676;7.838;2023-01-30T15:45:27;25.35;;;4.07;;
54935;SDS011;40838;50.676;7.838;2023-01-30T15:48:13;20.98;;;2.92;;
54935;SDS011;40838;50.676;7.838;2023-01-30T15:50:54;18.00;;;3.97;;
54935;SDS011;40838;50.676;7.838;2023-01-30T15:53:25;14.02;;;2.83;;
54935;SDS011;40838;50.676;7.838;2023-01-30T15:55:55;18.65;;;3.20;;